Time;durP1;ratioP1;P1;durP2;ratioP2;P2;SDS_P1;SDS_P2;PMS_P1;PMS_P2;Temp;Humidity;BMP_temperature;BMP_pressure;BME280_temperature;BME280_humidity;BME280_pressure;Samples;Min_cycle;Max_cycle;Signal;HPM_P1;HPM_P2
2022/07/16 00:03:06;;;;;;;;;;;;;;;23.37;32.48;100083.50;4317263;33;19988;-80
2022/07/16 00:05:33;;;;;;;;;;;;;;;23.04;33.50;100083.69;4315135;33;19976;-82
2022/07/16 00:07:59;;;;;;;;;;;;;;;22.92;33.51;100073.47;4317455;33;20048;-80
2022/07/16 00:10:27;;;;;;;;;;;;;;;23.07;33.04;100083.59;4311778;33;20307;-80
2022/07/16 00:12:53;;;;;;;;;;;;;;;23.11;32.83;100072.00;4312306;33;20007;-81
2022/07/16 00:15:20;;;;;;;;;;;;;;;22.93;33.59;100075.19;4318151;33;20010;-80
2022/07/16 00:17:47;;;;;;;;;;;;;;;22.98;33.97;100073.31;4311384;33;20039;-80
2022/07/16 00:20:14;;;;;;;;;;;;;;;23.17;33.19;100068.31;4311434;32;20120;-80
2022/07/16 00:22:41;;;;;;;;;;;;;;;23.12;33.38;100070.22;4311258;33;20002;-82
2022/07/16 00:25:08;;;;;;;;;;;;;;;23.11;33.02;100064.09;4312075;33;20032;-81
2022/07/16 00:27:35;;;;;;;;;;;;;;;23.19;32.60;100072.59;4313117;33;19999;-80
2022/07/16 00:30:02;;;;;;;;;;;;;;;23.00;32.96;100073.25;4317831;33;20056;-80
2022/07/16 00:32:30;;;;;;;;;;;;;;;23.05;33.20;100069.56;4311288;33;20945;-80
2022/07/16 00:34:56;;;;;;;;;;;;;;;23.04;33.15;100073.12;4321972;33;19988;-80
2022/07/16 00:37:23;;;;;;;;;;;;;;;23.14;33.11;100076.34;4318385;32;19999;-80
2022/07/16 00:39:51;;;;;;;;;;;;;;;23.11;33.05;100074.66;4317440;33;20318;-80
2022/07/16 00:42:18;;;;;;;;;;;;;;;23.05;33.56;100069.56;4312945;33;19980;-80
2022/07/16 00:44:45;;;;;;;;;;;;;;;23.20;33.16;100074.34;4311464;33;20023;-80
2022/07/16 00:47:12;;;;;;;;;;;;;;;23.11;33.03;100072.00;4312099;33;19976;-80
2022/07/16 00:49:38;;;;;;;;;;;;;;;23.14;33.25;100079.84;4318519;33;19998;-79
2022/07/16 00:52:05;;;;;;;;;;;;;;;23.19;32.68;100083.16;4316940;32;20066;-80
2022/07/16 00:54:34;;;;;;;;;;;;;;;22.98;33.56;100074.16;4310929;32;19976;-83
2022/07/16 00:57:00;;;;;;;;;;;;;;;23.10;32.89;100077.31;4318012;33;19988;-80
2022/07/16 00:59:27;;;;;;;;;;;;;;;23.08;33.24;100080.03;4311977;33;20019;-80
2022/07/16 01:01:57;;;;;;;;;;;;;;;23.10;33.25;100080.84;4310582;33;19992;-80
2022/07/16 01:04:24;;;;;;;;;;;;;;;23.03;33.59;100078.44;4310346;33;19984;-80
2022/07/16 01:06:51;;;;;;;;;;;;;;;22.99;33.54;100080.31;4310578;33;20003;-80
2022/07/16 01:09:18;;;;;;;;;;;;;;;23.10;32.96;100083.50;4310706;33;20356;-81
2022/07/16 01:11:46;;;;;;;;;;;;;;;23.16;33.46;100077.97;4310892;33;20063;-80
2022/07/16 01:14:12;;;;;;;;;;;;;;;22.92;33.91;100078.75;4321728;33;20337;-81
2022/07/16 01:16:39;;;;;;;;;;;;;;;22.98;33.96;100073.31;4323123;33;20381;-81
2022/07/16 01:19:07;;;;;;;;;;;;;;;22.91;34.02;100074.34;4315920;32;20334;-80
2022/07/16 01:21:34;;;;;;;;;;;;;;;22.88;33.99;100082.41;4321426;33;20319;-81
2022/07/16 01:24:01;;;;;;;;;;;;;;;22.67;34.62;100076.84;4312613;33;19976;-81
2022/07/16 01:26:27;;;;;;;;;;;;;;;22.92;33.85;100074.31;4327841;33;20319;-81
2022/07/16 01:28:54;;;;;;;;;;;;;;;22.82;34.00;100077.31;4323905;32;19980;-80
2022/07/16 01:31:22;;;;;;;;;;;;;;;22.69;34.33;100085.59;4321121;33;19983;-81
2022/07/16 01:34:24;;;;;;;;;;;;;;;22.72;34.43;100082.84;4325184;33;19990;-83
2022/07/16 01:36:38;;;;;;;;;;;;;;;22.79;34.30;100082.69;4319904;33;20031;-81
2022/07/16 01:39:05;;;;;;;;;;;;;;;22.75;34.44;100076.62;4317045;33;19972;-81
2022/07/16 01:41:32;;;;;;;;;;;;;;;22.73;34.49;100074.00;4316204;32;20411;-83
2022/07/16 01:43:59;;;;;;;;;;;;;;;22.65;34.73;100075.16;4319465;33;20028;-80
2022/07/16 01:46:26;;;;;;;;;;;;;;;22.68;35.17;100081.19;4309350;32;19991;-80
2022/07/16 01:48:53;;;;;;;;;;;;;;;22.47;35.33;100081.84;4295699;33;20018;-80
2022/07/16 01:51:20;;;;;;;;;;;;;;;22.64;35.67;100084.84;4300131;33;20036;-80
2022/07/16 01:53:48;;;;;;;;;;;;;;;22.42;36.50;100089.00;4304641;33;19996;-80
2022/07/16 01:56:14;;;;;;;;;;;;;;;22.36;36.37;100091.81;4310576;32;19992;-81
2022/07/16 01:58:42;;;;;;;;;;;;;;;22.15;37.07;100086.22;4317909;33;19984;-81
2022/07/16 02:01:08;;;;;;;;;;;;;;;22.20;37.16;100094.87;4310452;33;19984;-81
2022/07/16 02:03:35;;;;;;;;;;;;;;;22.11;37.09;100095.09;4309849;33;19980;-81
2022/07/16 02:06:03;;;;;;;;;;;;;;;22.10;36.96;100088.09;4322238;33;20374;-83
2022/07/16 02:08:29;;;;;;;;;;;;;;;21.76;37.53;100086.38;4289991;33;864295;-81
2022/07/16 02:10:56;;;;;;;;;;;;;;;21.84;38.16;100091.44;4310203;33;19984;-81
2022/07/16 02:13:23;;;;;;;;;;;;;;;21.91;38.14;100087.72;4312480;32;19999;-82
2022/07/16 02:15:50;;;;;;;;;;;;;;;21.63;38.24;100082.31;4028461;32;10009190;-81
2022/07/16 02:18:17;;;;;;;;;;;;;;;21.65;39.00;100091.06;4312888;32;20368;-81
2022/07/16 02:20:45;;;;;;;;;;;;;;;21.63;39.17;100084.94;4324388;32;19976;-80
2022/07/16 02:23:11;;;;;;;;;;;;;;;21.51;39.66;100082.66;4321141;32;20047;-81
2022/07/16 02:25:40;;;;;;;;;;;;;;;21.47;39.67;100086.22;4293622;32;20047;-80
2022/07/16 02:28:07;;;;;;;;;;;;;;;21.43;39.50;100084.59;4313715;33;19976;-82
2022/07/16 02:30:35;;;;;;;;;;;;;;;21.33;39.56;100092.69;4312127;33;19992;-80
2022/07/16 02:33:02;;;;;;;;;;;;;;;21.47;39.54;100087.09;4312504;33;20008;-80
2022/07/16 02:35:29;;;;;;;;;;;;;;;21.26;39.77;100088.47;4317519;33;19981;-81
2022/07/16 02:37:57;;;;;;;;;;;;;;;21.51;39.02;100082.66;4322941;33;20014;-80
2022/07/16 02:40:23;;;;;;;;;;;;;;;21.36;39.17;100083.88;4322481;33;19984;-80
2022/07/16 02:42:51;;;;;;;;;;;;;;;21.08;40.12;100083.63;4311470;33;20326;-80
2022/07/16 02:45:17;;;;;;;;;;;;;;;21.04;40.30;100081.97;4318632;33;19971;-80
2022/07/16 02:47:44;;;;;;;;;;;;;;;20.94;40.48;100083.09;4313481;33;19999;-79
2022/07/16 02:50:11;;;;;;;;;;;;;;;20.87;40.86;100091.13;4328540;33;20318;-83
2022/07/16 02:52:38;;;;;;;;;;;;;;;20.76;41.27;100093.09;4313845;33;20027;-80
2022/07/16 02:55:05;;;;;;;;;;;;;;;20.84;40.67;100091.19;3990473;32;10004458;-80
2022/07/16 02:57:32;;;;;;;;;;;;;;;20.81;40.84;100096.50;4281529;33;20036;-79
2022/07/16 02:59:59;;;;;;;;;;;;;;;20.70;41.29;100098.50;4284483;33;19988;-80
2022/07/16 03:02:26;;;;;;;;;;;;;;;20.77;40.87;100099.22;4288023;33;20011;-81
2022/07/16 03:04:53;;;;;;;;;;;;;;;20.62;41.56;100096.03;4295724;33;19985;-80
2022/07/16 03:07:20;;;;;;;;;;;;;;;20.68;40.87;100102.94;4292923;33;19995;-80
2022/07/16 03:09:47;;;;;;;;;;;;;;;20.73;40.90;100103.69;4286921;33;20369;-79
2022/07/16 03:12:14;;;;;;;;;;;;;;;20.60;41.38;100102.22;4289184;33;19997;-79
2022/07/16 03:14:40;;;;;;;;;;;;;;;20.50;41.60;100111.16;4285128;33;20019;-80
2022/07/16 03:17:07;;;;;;;;;;;;;;;20.53;41.32;100100.63;4289323;33;19984;-81
2022/07/16 03:19:34;;;;;;;;;;;;;;;20.46;41.70;100106.88;4283401;33;19988;-78
2022/07/16 03:22:01;;;;;;;;;;;;;;;20.58;41.15;100109.25;4287578;33;19985;-78
2022/07/16 03:24:28;;;;;;;;;;;;;;;20.56;41.46;100105.81;4292700;33;19992;-78
2022/07/16 03:26:55;;;;;;;;;;;;;;;20.34;41.91;100111.47;4293070;33;19973;-78
2022/07/16 03:29:28;;;;;;;;;;;;;;;20.41;41.79;100107.81;4282154;33;19977;-78
2022/07/16 03:31:55;;;;;;;;;;;;;;;20.38;41.87;100112.28;4295126;33;19993;-78
2022/07/16 03:34:22;;;;;;;;;;;;;;;20.53;41.68;100111.13;4293348;33;20000;-79
2022/07/16 03:36:49;;;;;;;;;;;;;;;20.56;41.59;100111.94;4284074;33;20023;-79
2022/07/16 03:39:16;;;;;;;;;;;;;;;20.51;41.67;100119.03;4285894;33;20012;-79
2022/07/16 03:41:43;;;;;;;;;;;;;;;20.69;40.65;100117.81;4288847;33;20027;-78
2022/07/16 03:44:11;;;;;;;;;;;;;;;20.59;41.32;100121.53;4294926;33;20037;-79
2022/07/16 03:46:39;;;;;;;;;;;;;;;20.66;41.03;100123.13;4293985;33;20021;-82
2022/07/16 03:49:06;;;;;;;;;;;;;;;20.67;41.34;100122.22;4288895;33;20056;-79
2022/07/16 03:51:33;;;;;;;;;;;;;;;20.61;41.31;100130.25;3991726;33;10003797;-79
2022/07/16 03:54:01;;;;;;;;;;;;;;;20.57;41.27;100128.59;4290738;33;19989;-80
2022/07/16 03:56:28;;;;;;;;;;;;;;;20.60;40.76;100128.53;4283722;33;20003;-79
2022/07/16 03:58:55;;;;;;;;;;;;;;;20.69;40.75;100122.22;4288564;33;19990;-78
2022/07/16 04:01:23;;;;;;;;;;;;;;;20.76;41.39;100129.94;4290835;33;19988;-79
2022/07/16 04:03:50;;;;;;;;;;;;;;;20.63;41.68;100128.47;4293043;33;19973;-79
2022/07/16 04:06:17;;;;;;;;;;;;;;;20.83;41.10;100131.53;4290570;33;20002;-79
2022/07/16 04:08:44;;;;;;;;;;;;;;;20.59;42.31;100126.81;4295809;33;19991;-77
2022/07/16 04:11:12;;;;;;;;;;;;;;;20.76;41.75;100118.56;4296020;33;20344;-81
2022/07/16 04:13:39;;;;;;;;;;;;;;;20.71;41.84;100120.41;4295926;33;19980;-78
2022/07/16 04:16:09;;;;;;;;;;;;;;;20.64;42.34;100130.19;4292420;33;20067;-77
2022/07/16 04:18:36;;;;;;;;;;;;;;;20.63;42.33;100123.19;4299959;33;19984;-79
2022/07/16 04:21:04;;;;;;;;;;;;;;;20.79;41.58;100135.13;4324773;33;20048;-78
2022/07/16 04:23:31;;;;;;;;;;;;;;;20.78;42.57;100135.19;4324929;33;20046;-79
2022/07/16 04:25:58;;;;;;;;;;;;;;;20.81;42.13;100138.59;4318110;33;19994;-79
2022/07/16 04:28:25;;;;;;;;;;;;;;;20.95;41.66;100133.03;4311267;33;19972;-79
2022/07/16 04:30:52;;;;;;;;;;;;;;;20.98;42.10;100134.75;4311020;33;19996;-77
2022/07/16 04:33:19;;;;;;;;;;;;;;;21.03;41.57;100135.53;4325780;32;19996;-78
2022/07/16 04:35:48;;;;;;;;;;;;;;;21.06;41.69;100132.81;4323892;33;20087;-78
2022/07/16 04:38:15;;;;;;;;;;;;;;;21.11;41.71;100130.94;4317574;33;19995;-79
2022/07/16 04:40:43;;;;;;;;;;;;;;;21.19;41.78;100139.53;4312181;33;19972;-79
2022/07/16 04:43:09;;;;;;;;;;;;;;;21.31;39.69;100126.09;4314544;33;20448;-83
2022/07/16 04:45:36;;;;;;;;;;;;;;;21.25;39.88;100122.72;4311199;33;19984;-79
2022/07/16 04:48:03;;;;;;;;;;;;;;;21.29;40.68;100120.00;4310876;33;19976;-78
2022/07/16 04:50:30;;;;;;;;;;;;;;;21.39;41.04;100119.81;4318687;33;19995;-79
2022/07/16 04:52:57;;;;;;;;;;;;;;;21.43;38.88;100127.59;4310569;33;19980;-79
2022/07/16 04:55:24;;;;;;;;;;;;;;;21.52;38.59;100121.25;4319451;33;20422;-79
2022/07/16 04:57:51;;;;;;;;;;;;;;;21.45;38.84;100124.94;4311978;33;20250;-81
2022/07/16 05:00:24;;;;;;;;;;;;;;;21.66;37.63;100129.66;4316797;33;19980;-77
2022/07/16 05:02:57;;;;;;;;;;;;;;;21.66;37.27;100124.38;4310871;33;19976;-78
2022/07/16 05:05:26;;;;;;;;;;;;;;;21.67;37.35;100126.13;4310185;33;19992;-85
2022/07/16 05:07:54;;;;;;;;;;;;;;;21.49;38.03;100131.84;4321013;33;19976;-79
2022/07/16 05:10:22;;;;;;;;;;;;;;;21.72;37.20;100129.50;4329653;32;20005;-83
2022/07/16 05:12:51;;;;;;;;;;;;;;;21.73;37.26;100130.38;4324028;33;19992;-78
2022/07/16 05:15:18;;;;;;;;;;;;;;;21.87;37.58;100137.94;4330743;32;19997;-79
2022/07/16 05:17:45;;;;;;;;;;;;;;;21.89;37.55;100137.00;4313562;33;19999;-77
2022/07/16 05:20:12;;;;;;;;;;;;;;;21.78;37.65;100139.91;4321037;33;20015;-79
2022/07/16 05:22:39;;;;;;;;;;;;;;;21.87;37.50;100140.59;4310471;33;20323;-78
2022/07/16 05:25:07;;;;;;;;;;;;;;;21.94;38.02;100134.25;4318203;33;20051;-78
2022/07/16 05:27:34;;;;;;;;;;;;;;;22.02;36.71;100134.91;4309992;33;19981;-85
2022/07/16 05:30:01;;;;;;;;;;;;;;;22.13;36.19;100140.75;4310203;32;20030;-79
2022/07/16 05:32:28;;;;;;;;;;;;;;;22.22;35.78;100140.56;4310777;33;19989;-78
2022/07/16 05:34:55;;;;;;;;;;;;;;;22.21;36.14;100136.19;4312272;33;20403;-79
2022/07/16 05:37:22;;;;;;;;;;;;;;;22.24;35.93;100149.28;4316189;32;19988;-79
2022/07/16 05:39:49;;;;;;;;;;;;;;;22.35;35.75;100137.59;4321031;33;20010;-78
2022/07/16 05:42:16;;;;;;;;;;;;;;;22.22;36.44;100140.56;4296872;32;20007;-78
2022/07/16 05:44:43;;;;;;;;;;;;;;;22.39;35.74;100147.12;4318680;33;20006;-80
2022/07/16 05:47:10;;;;;;;;;;;;;;;22.24;36.76;100138.75;4316970;33;20007;-78
2022/07/16 05:49:37;;;;;;;;;;;;;;;22.30;36.39;100142.97;4322272;33;20005;-78
2022/07/16 05:52:08;;;;;;;;;;;;;;;22.51;35.97;100146.78;4314660;32;19984;-78
2022/07/16 05:54:35;;;;;;;;;;;;;;;22.52;35.51;100148.53;4321658;33;20874;-83
2022/07/16 05:57:02;;;;;;;;;;;;;;;22.56;36.04;100144.91;4310614;32;19988;-78
2022/07/16 05:59:29;;;;;;;;;;;;;;;22.71;36.07;100144.44;4311000;32;19983;-78
2022/07/16 06:01:56;;;;;;;;;;;;;;;22.84;35.85;100141.44;4315002;33;20594;-81
2022/07/16 06:04:23;;;;;;;;;;;;;;;22.86;35.10;100139.63;4310799;33;20321;-78
2022/07/16 06:06:49;;;;;;;;;;;;;;;22.77;35.64;100142.53;4314646;33;20504;-79
2022/07/16 06:09:16;;;;;;;;;;;;;;;22.88;35.58;100143.97;4313618;33;20036;-78
2022/07/16 06:11:43;;;;;;;;;;;;;;;23.04;34.85;100141.78;4317370;33;20155;-80
2022/07/16 06:14:10;;;;;;;;;;;;;;;23.10;34.72;100145.97;4311672;33;20297;-79
2022/07/16 06:16:41;;;;;;;;;;;;;;;23.20;34.74;100144.81;4311187;32;20003;-79
2022/07/16 06:19:08;;;;;;;;;;;;;;;23.44;34.28;100145.78;4319811;33;20118;-78
2022/07/16 06:21:35;;;;;;;;;;;;;;;23.10;35.96;100151.25;4312420;33;19984;-78
2022/07/16 06:24:02;;;;;;;;;;;;;;;22.98;36.63;100155.16;4320421;33;20008;-80
2022/07/16 06:26:29;;;;;;;;;;;;;;;23.57;34.21;100147.12;4311604;33;20027;-79
2022/07/16 06:28:55;;;;;;;;;;;;;;;23.53;35.50;100156.06;4311998;33;19980;-79
2022/07/16 06:31:22;;;;;;;;;;;;;;;23.96;33.70;100153.81;4312341;33;20011;-79
2022/07/16 06:33:49;;;;;;;;;;;;;;;23.99;33.07;100165.16;4311743;33;19981;-79
2022/07/16 06:36:16;;;;;;;;;;;;;;;24.06;33.30;100156.13;4324224;33;19972;-80
2022/07/16 06:38:43;;;;;;;;;;;;;;;23.97;33.90;100161.72;4320154;33;20088;-78
2022/07/16 06:41:10;;;;;;;;;;;;;;;24.11;33.44;100163.88;4313508;33;19988;-80
2022/07/16 06:43:41;;;;;;;;;;;;;;;24.00;34.79;100161.59;4328559;33;19985;-79
2022/07/16 06:46:08;;;;;;;;;;;;;;;23.88;35.25;100162.03;4317133;33;20329;-79
2022/07/16 06:48:35;;;;;;;;;;;;;;;24.18;33.29;100164.53;4314544;33;19980;-79
2022/07/16 06:51:02;;;;;;;;;;;;;;;24.26;33.77;100162.50;4313720;33;20063;-80
2022/07/16 06:53:29;;;;;;;;;;;;;;;24.67;33.88;100173.41;4317776;33;19984;-79
2022/07/16 06:55:56;;;;;;;;;;;;;;;24.97;32.33;100161.66;4316849;33;19976;-78
2022/07/16 06:58:23;;;;;;;;;;;;;;;25.29;33.19;100156.91;4321007;32;19980;-78
2022/07/16 07:00:50;;;;;;;;;;;;;;;25.75;30.77;100160.38;4317923;33;20006;-79
2022/07/16 07:03:17;;;;;;;;;;;;;;;25.69;31.07;100155.34;4312185;33;19980;-79
2022/07/16 07:05:44;;;;;;;;;;;;;;;25.81;31.74;100154.81;4311811;33;20269;-78
2022/07/16 07:08:10;;;;;;;;;;;;;;;26.12;30.02;100156.19;4311364;33;20041;-81
2022/07/16 07:10:38;;;;;;;;;;;;;;;26.48;30.42;100144.88;4319685;33;20002;-79
2022/07/16 07:13:04;;;;;;;;;;;;;;;25.85;31.46;100151.12;4321512;33;20063;-80
2022/07/16 07:15:31;;;;;;;;;;;;;;;26.17;30.93;100157.72;4321892;33;20349;-79
2022/07/16 07:17:58;;;;;;;;;;;;;;;26.36;30.65;100162.25;4321990;33;19988;-79
2022/07/16 07:20:25;;;;;;;;;;;;;;;26.83;28.75;100149.47;4319175;33;19994;-80
2022/07/16 07:22:52;;;;;;;;;;;;;;;26.23;31.60;100156.59;4312282;32;20315;-80
2022/07/16 07:25:19;;;;;;;;;;;;;;;26.63;31.18;100165.47;4328445;33;19972;-80
2022/07/16 07:27:46;;;;;;;;;;;;;;;26.77;30.01;100157.75;4313355;32;20039;-82
2022/07/16 07:30:13;;;;;;;;;;;;;;;26.99;30.27;100157.59;4318108;33;20346;-79
2022/07/16 07:32:40;;;;;;;;;;;;;;;27.12;29.70;100152.56;4311625;33;20030;-81
2022/07/16 07:35:07;;;;;;;;;;;;;;;27.60;26.74;100143.22;4311757;33;20039;-79
2022/07/16 07:37:34;;;;;;;;;;;;;;;27.49;27.30;100151.69;4315083;33;19984;-79
2022/07/16 07:40:04;;;;;;;;;;;;;;;27.50;29.35;100147.25;4326154;33;20110;-80
2022/07/16 07:42:31;;;;;;;;;;;;;;;27.90;27.35;100151.47;4326296;33;19988;-79
2022/07/16 07:44:58;;;;;;;;;;;;;;;28.03;26.79;100146.38;4325045;33;19986;-80
2022/07/16 07:47:25;;;;;;;;;;;;;;;28.12;26.86;100150.38;4318126;33;19998;-82
2022/07/16 07:49:51;;;;;;;;;;;;;;;27.47;28.94;100152.72;4326589;33;20014;-78
2022/07/16 07:52:18;;;;;;;;;;;;;;;27.34;27.38;100147.12;4322358;33;20004;-79
2022/07/16 07:54:45;;;;;;;;;;;;;;;27.30;28.43;100146.41;4317967;33;19980;-82
2022/07/16 07:57:12;;;;;;;;;;;;;;;27.65;29.22;100145.63;4329642;33;20002;-79
2022/07/16 07:59:39;;;;;;;;;;;;;;;27.99;28.72;100155.47;4310434;32;20051;-80
2022/07/16 08:02:06;;;;;;;;;;;;;;;28.54;25.93;100135.78;4311773;33;20048;-80
2022/07/16 08:04:33;;;;;;;;;;;;;;;28.68;25.68;100144.72;4318999;33;19992;-78
2022/07/16 08:07:00;;;;;;;;;;;;;;;28.43;26.46;100139.00;4311229;33;19975;-78
2022/07/16 08:09:27;;;;;;;;;;;;;;;28.88;26.50;100129.50;4313145;33;20001;-78
2022/07/16 08:11:54;;;;;;;;;;;;;;;29.51;23.53;100136.63;4317685;33;20338;-79
2022/07/16 08:14:21;;;;;;;;;;;;;;;29.51;24.03;100131.28;4311134;32;20006;-78
2022/07/16 08:16:53;;;;;;;;;;;;;;;29.31;25.07;100132.44;4318717;33;19995;-79
2022/07/16 08:19:20;;;;;;;;;;;;;;;29.92;22.43;100118.19;4311124;33;20848;-80
2022/07/16 08:21:47;;;;;;;;;;;;;;;30.07;21.33;100122.63;4310999;33;20011;-79
2022/07/16 08:27:02;;;;;;;;;;;;;;;30.18;23.29;100113.97;4311285;33;19988;-79
2022/07/16 08:29:29;;;;;;;;;;;;;;;29.86;23.56;100119.41;4311154;33;20326;-78
2022/07/16 08:31:56;;;;;;;;;;;;;;;29.98;24.65;100123.19;4311699;33;20006;-78
2022/07/16 08:34:24;;;;;;;;;;;;;;;30.57;21.39;100123.19;4310384;33;19980;-78
2022/07/16 08:36:52;;;;;;;;;;;;;;;30.74;20.60;100122.13;4322252;33;19976;-78
2022/07/16 08:39:19;;;;;;;;;;;;;;;30.07;23.98;100125.31;4328830;33;19988;-79
2022/07/16 08:41:46;;;;;;;;;;;;;;;29.81;24.08;100121.53;4316421;33;19985;-79
2022/07/16 08:44:13;;;;;;;;;;;;;;;30.57;22.51;100121.38;4311274;33;19994;-79
2022/07/16 08:46:40;;;;;;;;;;;;;;;30.87;21.01;100117.75;4311276;33;19989;-79
2022/07/16 08:49:08;;;;;;;;;;;;;;;31.06;21.70;100116.56;4327339;33;20377;-78
2022/07/16 08:51:37;;;;;;;;;;;;;;;30.91;20.38;100124.59;4331328;33;20386;-79
2022/07/16 08:54:05;;;;;;;;;;;;;;;30.88;21.63;100122.13;4015344;32;10003755;-78
2022/07/16 08:56:35;;;;;;;;;;;;;;;30.70;20.81;100117.94;4296185;33;20021;-78
2022/07/16 08:59:02;;;;;;;;;;;;;;;31.08;21.29;100119.97;4313334;33;20000;-78
2022/07/16 09:01:31;;;;;;;;;;;;;;;31.00;20.32;100124.00;4296400;33;19984;-80
2022/07/16 09:03:59;;;;;;;;;;;;;;;30.90;23.38;100122.91;4306675;33;20326;-79
2022/07/16 09:06:26;;;;;;;;;;;;;;;31.21;20.37;100115.56;4296601;33;20357;-78
2022/07/16 09:08:53;;;;;;;;;;;;;;;31.28;19.88;100117.72;4304445;33;20022;-79
2022/07/16 09:11:21;;;;;;;;;;;;;;;30.70;22.47;100109.91;4296192;33;20391;-78
2022/07/16 09:14:04;;;;;;;;;;;;;;;30.70;21.54;100120.59;4296168;33;20371;-79
2022/07/16 09:16:33;;;;;;;;;;;;;;;30.67;21.26;100105.63;4296145;33;20036;-78
2022/07/16 09:19:03;;;;;;;;;;;;;;;30.49;23.63;100102.28;4295003;33;20028;-79
2022/07/16 09:21:30;;;;;;;;;;;;;;;31.05;22.46;100107.69;4298329;33;20063;-78
2022/07/16 09:23:57;;;;;;;;;;;;;;;31.68;20.07;100108.88;4302488;33;19981;-78
2022/07/16 09:26:26;;;;;;;;;;;;;;;31.69;21.93;100108.81;4297052;33;19987;-78
2022/07/16 09:28:53;;;;;;;;;;;;;;;31.43;21.04;100115.03;4296230;33;20056;-78
2022/07/16 09:31:31;;;;;;;;;;;;;;;30.61;21.27;100099.81;4303681;33;20315;-79
2022/07/16 09:34:01;;;;;;;;;;;;;;;31.06;22.74;100100.53;4296563;33;20006;-78
2022/07/16 09:36:28;;;;;;;;;;;;;;;31.60;19.84;100097.87;4300091;33;19973;-78
2022/07/16 09:38:55;;;;;;;;;;;;;;;31.53;19.39;100099.25;4307053;33;20000;-78
2022/07/16 09:41:22;;;;;;;;;;;;;;;31.66;20.02;100105.47;4312627;33;19992;-78
2022/07/16 09:43:49;;;;;;;;;;;;;;;31.94;19.90;100094.63;4329353;32;20031;-79
2022/07/16 09:46:18;;;;;;;;;;;;;;;32.17;18.90;100095.72;4349749;32;20673;-79
2022/07/16 09:48:45;;;;;;;;;;;;;;;31.96;19.61;100092.69;4321198;33;20055;-79
2022/07/16 09:51:19;;;;;;;;;;;;;;;31.73;20.71;100090.72;4312796;33;19984;-79
2022/07/16 09:53:47;;;;;;;;;;;;;;;31.65;19.53;100109.09;4319090;33;20014;-78
2022/07/16 09:56:18;;;;;;;;;;;;;;;31.86;19.50;100096.94;4327239;33;19986;-78
2022/07/16 09:58:49;;;;;;;;;;;;;;;31.05;22.58;100094.31;4322422;33;20046;-78
2022/07/16 10:01:16;;;;;;;;;;;;;;;31.32;20.52;100096.12;4321720;32;19988;-78
2022/07/16 10:03:44;;;;;;;;;;;;;;;30.07;24.07;100090.59;4318146;33;19991;-79
2022/07/16 10:06:12;;;;;;;;;;;;;;;30.90;20.80;100085.47;4314378;33;19972;-78
2022/07/16 10:08:39;;;;;;;;;;;;;;;30.98;21.61;100088.50;4311744;33;19976;-79
2022/07/16 10:11:06;;;;;;;;;;;;;;;31.39;19.87;100084.94;4318028;32;19995;-78
2022/07/16 10:13:33;;;;;;;;;;;;;;;31.72;20.41;100083.66;4330331;32;19987;-79
2022/07/16 10:16:01;;;;;;;;;;;;;;;31.21;23.17;100083.47;4312311;33;20354;-78
2022/07/16 10:18:44;;;;;;;;;;;;;;;31.63;20.51;100073.56;4288437;32;20877;-78
2022/07/16 10:21:17;;;;;;;;;;;;;;;31.79;20.81;100068.88;4311886;33;19976;-79
2022/07/16 10:24:05;;;;;;;;;;;;;;;31.60;21.91;100073.78;4311649;33;20372;-78
2022/07/16 10:26:32;;;;;;;;;;;;;;;31.93;21.42;100063.44;4313453;33;19972;-79
2022/07/16 10:29:00;;;;;;;;;;;;;;;32.32;20.71;100055.41;4318259;33;19984;-78
2022/07/16 10:31:30;;;;;;;;;;;;;;;32.35;21.85;100049.81;4312500;33;20052;-78
2022/07/16 10:34:12;;;;;;;;;;;;;;;32.65;19.96;100052.16;4314980;33;20086;-78
2022/07/16 10:36:50;;;;;;;;;;;;;;;32.76;19.17;100044.19;4318611;33;20023;-79
2022/07/16 10:39:17;;;;;;;;;;;;;;;32.31;20.56;100054.53;4332675;33;20056;-79
2022/07/16 10:41:48;;;;;;;;;;;;;;;32.48;20.24;100044.47;4349558;32;20047;-78
2022/07/16 10:44:15;;;;;;;;;;;;;;;32.59;19.91;100041.88;4321832;33;20018;-79
2022/07/16 10:46:56;;;;;;;;;;;;;;;32.42;20.47;100035.91;4330129;32;20391;-78
2022/07/16 10:49:24;;;;;;;;;;;;;;;31.77;22.20;100027.97;4324895;33;19976;-78
2022/07/16 10:51:57;;;;;;;;;;;;;;;31.92;21.77;100026.94;4328002;33;19984;-78
2022/07/16 10:54:29;;;;;;;;;;;;;;;31.50;22.07;100025.38;4313448;33;20819;-78
2022/07/16 10:56:57;;;;;;;;;;;;;;;32.19;22.13;100028.62;4320541;33;20412;-79
2022/07/16 10:59:27;;;;;;;;;;;;;;;32.41;21.68;100028.81;4326436;33;20067;-78
2022/07/16 11:01:55;;;;;;;;;;;;;;;32.10;22.17;100030.16;4326566;33;20023;-78
2022/07/16 11:04:41;;;;;;;;;;;;;;;32.15;22.36;100019.09;4325919;33;20039;-79
2022/07/16 11:07:09;;;;;;;;;;;;;;;32.23;21.44;100014.06;4321778;33;19984;-78
2022/07/16 11:09:39;;;;;;;;;;;;;;;32.55;21.42;100009.09;4319805;33;19980;-79
2022/07/16 11:12:08;;;;;;;;;;;;;;;32.81;21.82;100004.50;4321446;33;20003;-79
2022/07/16 11:14:35;;;;;;;;;;;;;;;32.84;20.29;100014.16;4316483;33;20428;-78
2022/07/16 11:17:03;;;;;;;;;;;;;;;31.99;21.44;100015.78;4311806;33;19980;-79
2022/07/16 11:19:30;;;;;;;;;;;;;;;32.71;20.48;100014.19;4310456;33;19987;-79
2022/07/16 11:21:59;;;;;;;;;;;;;;;32.86;20.25;100007.66;4328358;33;19983;-79
2022/07/16 11:24:27;;;;;;;;;;;;;;;33.00;20.09;100013.91;4311787;33;20027;-78
2022/07/16 11:26:54;;;;;;;;;;;;;;;32.64;23.04;100008.44;4311454;32;20036;-79
2022/07/16 11:29:23;;;;;;;;;;;;;;;32.85;22.02;100011.34;4330491;33;19980;-78
2022/07/16 11:31:50;;;;;;;;;;;;;;;33.28;19.94;100005.47;4311712;33;20336;-78
2022/07/16 11:34:23;;;;;;;;;;;;;;;32.99;21.05;100012.16;4311197;33;19992;-79
2022/07/16 11:36:54;;;;;;;;;;;;;;;33.05;20.14;100014.38;4314493;33;19992;-78
2022/07/16 11:39:22;;;;;;;;;;;;;;;33.04;19.89;100015.38;4318467;33;20079;-79
2022/07/16 11:41:50;;;;;;;;;;;;;;;32.87;19.83;100014.78;4326882;33;20035;-79
2022/07/16 11:44:17;;;;;;;;;;;;;;;32.43;20.52;100012.66;4311563;33;19988;-79
2022/07/16 11:46:45;;;;;;;;;;;;;;;32.47;19.97;100006.09;4317996;32;19992;-78
2022/07/16 11:49:20;;;;;;;;;;;;;;;31.88;22.58;100008.50;4321262;33;19984;-78
2022/07/16 11:51:47;;;;;;;;;;;;;;;31.85;23.22;100006.87;4312146;33;20643;-79
2022/07/16 11:54:14;;;;;;;;;;;;;;;32.40;21.39;99996.78;4318492;33;20423;-78
2022/07/16 11:56:41;;;;;;;;;;;;;;;32.75;19.81;99999.59;4311441;33;20341;-80
2022/07/16 11:59:17;;;;;;;;;;;;;;;32.55;21.87;99994.84;4314135;33;20036;-79
2022/07/16 12:01:44;;;;;;;;;;;;;;;32.68;21.19;99992.97;4319043;33;20001;-78
2022/07/16 12:04:11;;;;;;;;;;;;;;;32.33;22.46;100009.75;4325256;32;19983;-79
2022/07/16 12:06:44;;;;;;;;;;;;;;;32.80;20.77;100010.84;4334532;33;19976;-79
2022/07/16 12:09:11;;;;;;;;;;;;;;;32.26;22.26;100003.13;4328322;33;19992;-78
2022/07/16 12:11:38;;;;;;;;;;;;;;;32.72;20.71;100005.16;4316445;33;20043;-78
2022/07/16 12:14:05;;;;;;;;;;;;;;;32.64;20.39;100000.37;4313937;33;19988;-79
2022/07/16 12:16:32;;;;;;;;;;;;;;;32.54;21.00;100002.00;4319533;33;19976;-78
2022/07/16 12:19:03;;;;;;;;;;;;;;;32.49;21.15;99992.59;4311273;32;19996;-79
2022/07/16 12:21:30;;;;;;;;;;;;;;;32.53;21.48;99986.03;4311273;33;20060;-78
2022/07/16 12:23:58;;;;;;;;;;;;;;;32.49;21.27;99987.25;4319041;33;19988;-78
2022/07/16 12:26:29;;;;;;;;;;;;;;;32.01;22.97;99981.75;4311533;33;19980;-78
2022/07/16 12:28:56;;;;;;;;;;;;;;;32.41;22.48;99990.44;4313298;33;20084;-78
2022/07/16 12:31:26;;;;;;;;;;;;;;;32.94;20.33;99995.53;4311349;33;19979;-78
2022/07/16 12:33:53;;;;;;;;;;;;;;;32.70;21.55;99982.97;4303555;32;19992;-80
2022/07/16 12:36:20;;;;;;;;;;;;;;;32.52;21.43;99979.84;4301979;33;19989;-79
2022/07/16 12:41:16;;;;;;;;;;;;;;;32.61;21.16;99975.59;4282209;33;19989;-78
2022/07/16 12:43:44;;;;;;;;;;;;;;;31.89;22.61;99970.91;4281975;33;20052;-78
2022/07/16 12:46:11;;;;;;;;;;;;;;;31.64;21.99;99969.06;4282314;33;19985;-79
2022/07/16 12:48:42;;;;;;;;;;;;;;;32.10;23.25;99970.34;4281227;33;20342;-79